sensor_id;sensor_type;location;lat;lon;timestamp;pressure;altitude;pressure_sealevel;temperature;humidity
5500;BME280;2772;42.700;23.304;2023-04-07T00:01:11;94868.00;;;5.54;81.69
5500;BME280;2772;42.700;23.304;2023-04-07T00:03:38;94874.28;;;5.58;83.94
5500;BME280;2772;42.700;23.304;2023-04-07T00:06:06;94871.34;;;5.36;74.53
5500;BME280;2772;42.700;23.304;2023-04-07T00:08:32;94872.06;;;5.18;73.36
5500;BME280;2772;42.700;23.304;2023-04-07T00:11:00;94871.41;;;5.02;73.60
5500;BME280;2772;42.700;23.304;2023-04-07T00:13:27;94872.72;;;5.00;73.54
5500;BME280;2772;42.700;23.304;2023-04-07T00:15:54;94864.91;;;4.89;74.84
5500;BME280;2772;42.700;23.304;2023-04-07T00:18:20;94870.75;;;4.86;74.79
5500;BME280;2772;42.700;23.304;2023-04-07T00:20:47;94876.72;;;4.97;75.32
5500;BME280;2772;42.700;23.304;2023-04-07T00:23:14;94864.66;;;4.86;75.24
5500;BME280;2772;42.700;23.304;2023-04-07T00:25:41;94869.00;;;4.72;75.57
5500;BME280;2772;42.700;23.304;2023-04-07T00:28:09;94864.13;;;4.55;76.79
5500;BME280;2772;42.700;23.304;2023-04-07T00:30:35;94868.81;;;4.63;76.43
5500;BME280;2772;42.700;23.304;2023-04-07T00:33:02;94870.38;;;4.64;76.73
5500;BME280;2772;42.700;23.304;2023-04-07T00:35:29;94869.38;;;4.60;76.99
5500;BME280;2772;42.700;23.304;2023-04-07T00:37:55;94864.09;;;4.60;76.50
5500;BME280;2772;42.700;23.304;2023-04-07T00:40:23;94863.34;;;4.50;76.79
5500;BME280;2772;42.700;23.304;2023-04-07T00:42:49;94872.50;;;4.62;76.11
5500;BME280;2772;42.700;23.304;2023-04-07T00:45:17;94875.41;;;4.61;75.07
5500;BME280;2772;42.700;23.304;2023-04-07T00:47:44;94861.97;;;4.57;76.01
5500;BME280;2772;42.700;23.304;2023-04-07T00:50:11;94866.19;;;4.63;75.21
5500;BME280;2772;42.700;23.304;2023-04-07T00:52:38;94865.38;;;4.63;73.83
5500;BME280;2772;42.700;23.304;2023-04-07T00:55:06;94875.16;;;4.57;73.71
5500;BME280;2772;42.700;23.304;2023-04-07T00:57:33;94874.16;;;4.53;73.94
5500;BME280;2772;42.700;23.304;2023-04-07T00:59:59;94866.94;;;4.64;73.65
5500;BME280;2772;42.700;23.304;2023-04-07T01:02:32;94866.03;;;4.45;74.64
5500;BME280;2772;42.700;23.304;2023-04-07T01:05:09;94865.72;;;4.51;75.22
5500;BME280;2772;42.700;23.304;2023-04-07T01:07:47;94867.78;;;4.59;74.96
5500;BME280;2772;42.700;23.304;2023-04-07T01:10:21;94864.13;;;4.55;74.77
5500;BME280;2772;42.700;23.304;2023-04-07T01:12:56;94856.69;;;4.62;74.29
5500;BME280;2772;42.700;23.304;2023-04-07T01:15:29;94863.53;;;4.63;74.97
5500;BME280;2772;42.700;23.304;2023-04-07T01:18:02;94856.63;;;4.72;74.77
5500;BME280;2772;42.700;23.304;2023-04-07T01:20:33;94858.31;;;4.58;74.17
5500;BME280;2772;42.700;23.304;2023-04-07T01:23:03;94859.94;;;4.49;75.68
5500;BME280;2772;42.700;23.304;2023-04-07T01:25:53;94851.69;;;4.61;75.40
5500;BME280;2772;42.700;23.304;2023-04-07T01:28:38;94857.50;;;4.58;75.34
5500;BME280;2772;42.700;23.304;2023-04-07T01:31:09;94852.25;;;4.53;75.17
5500;BME280;2772;42.700;23.304;2023-04-07T01:33:38;94843.97;;;4.69;74.37
5500;BME280;2772;42.700;23.304;2023-04-07T01:36:07;94847.38;;;4.70;78.50
5500;BME280;2772;42.700;23.304;2023-04-07T01:38:35;94853.94;;;4.77;83.21
5500;BME280;2772;42.700;23.304;2023-04-07T01:41:03;94850.28;;;4.68;86.21
5500;BME280;2772;42.700;23.304;2023-04-07T01:43:31;94853.53;;;4.60;88.27
5500;BME280;2772;42.700;23.304;2023-04-07T01:45:58;94852.34;;;4.43;90.45
5500;BME280;2772;42.700;23.304;2023-04-07T01:48:28;94844.97;;;4.45;91.99
5500;BME280;2772;42.700;23.304;2023-04-07T01:50:55;94843.84;;;4.51;93.03
5500;BME280;2772;42.700;23.304;2023-04-07T01:53:23;94844.22;;;4.34;93.80
5500;BME280;2772;42.700;23.304;2023-04-07T01:55:52;94835.88;;;4.22;97.20
5500;BME280;2772;42.700;23.304;2023-04-07T01:58:19;94840.53;;;4.35;96.50
5500;BME280;2772;42.700;23.304;2023-04-07T02:00:47;94841.59;;;4.34;97.10
5500;BME280;2772;42.700;23.304;2023-04-07T02:03:19;94833.13;;;4.37;97.42
5500;BME280;2772;42.700;23.304;2023-04-07T02:05:49;94838.09;;;4.44;97.65
5500;BME280;2772;42.700;23.304;2023-04-07T02:08:19;94835.50;;;4.39;98.52
5500;BME280;2772;42.700;23.304;2023-04-07T02:10:47;94837.91;;;4.35;99.00
5500;BME280;2772;42.700;23.304;2023-04-07T02:13:18;94836.50;;;4.48;99.23
5500;BME280;2772;42.700;23.304;2023-04-07T02:15:46;94826.75;;;4.43;98.74
5500;BME280;2772;42.700;23.304;2023-04-07T02:18:14;94830.75;;;4.36;99.65
5500;BME280;2772;42.700;23.304;2023-04-07T02:20:43;94833.59;;;4.49;99.69
5500;BME280;2772;42.700;23.304;2023-04-07T02:23:13;94836.53;;;4.43;100.00
5500;BME280;2772;42.700;23.304;2023-04-07T02:25:40;94839.94;;;4.43;100.00
5500;BME280;2772;42.700;23.304;2023-04-07T02:28:07;94837.00;;;4.50;100.00
5500;BME280;2772;42.700;23.304;2023-04-07T02:30:34;94843.84;;;4.51;100.00
5500;BME280;2772;42.700;23.304;2023-04-07T02:33:01;94835.22;;;4.40;100.00
5500;BME280;2772;42.700;23.304;2023-04-07T02:35:27;94834.31;;;4.21;100.00
5500;BME280;2772;42.700;23.304;2023-04-07T02:37:54;94844.25;;;4.29;100.00
5500;BME280;2772;42.700;23.304;2023-04-07T02:40:22;94840.59;;;4.25;100.00
5500;BME280;2772;42.700;23.304;2023-04-07T02:42:49;94846.56;;;4.41;100.00
5500;BME280;2772;42.700;23.304;2023-04-07T02:45:16;94854.97;;;4.43;100.00
5500;BME280;2772;42.700;23.304;2023-04-07T02:47:42;94848.66;;;4.39;100.00
5500;BME280;2772;42.700;23.304;2023-04-07T02:50:10;94843.09;;;4.45;100.00
5500;BME280;2772;42.700;23.304;2023-04-07T02:52:36;94838.06;;;4.49;99.84
5500;BME280;2772;42.700;23.304;2023-04-07T02:55:03;94840.41;;;4.55;99.47
5500;BME280;2772;42.700;23.304;2023-04-07T02:57:32;94844.06;;;4.54;98.71
5500;BME280;2772;42.700;23.304;2023-04-07T02:59:59;94842.75;;;4.57;98.55
5500;BME280;2772;42.700;23.304;2023-04-07T03:02:26;94844.31;;;4.58;98.82
5500;BME280;2772;42.700;23.304;2023-04-07T03:04:53;94842.16;;;4.65;97.06
5500;BME280;2772;42.700;23.304;2023-04-07T03:07:19;94852.38;;;4.71;96.92
5500;BME280;2772;42.700;23.304;2023-04-07T03:09:46;94849.72;;;4.76;96.39
5500;BME280;2772;42.700;23.304;2023-04-07T03:12:12;94845.00;;;4.73;95.35
5500;BME280;2772;42.700;23.304;2023-04-07T03:14:41;94846.13;;;4.62;96.07
5500;BME280;2772;42.700;23.304;2023-04-07T03:17:07;94838.06;;;4.49;97.66
5500;BME280;2772;42.700;23.304;2023-04-07T03:19:34;94845.72;;;4.45;99.23
5500;BME280;2772;42.700;23.304;2023-04-07T03:22:01;94840.75;;;4.39;100.00
5500;BME280;2772;42.700;23.304;2023-04-07T03:24:27;94846.53;;;4.46;100.00
5500;BME280;2772;42.700;23.304;2023-04-07T03:26:54;94841.28;;;4.41;100.00
5500;BME280;2772;42.700;23.304;2023-04-07T03:29:21;94838.84;;;4.49;98.66
5500;BME280;2772;42.700;23.304;2023-04-07T03:31:49;94836.16;;;4.54;90.25
5500;BME280;2772;42.700;23.304;2023-04-07T03:34:15;94823.59;;;4.46;84.47
5500;BME280;2772;42.700;23.304;2023-04-07T03:36:42;94839.75;;;4.35;77.93
5500;BME280;2772;42.700;23.304;2023-04-07T03:39:09;94836.84;;;4.31;75.79
5500;BME280;2772;42.700;23.304;2023-04-07T03:41:35;94841.03;;;4.37;75.64
5500;BME280;2772;42.700;23.304;2023-04-07T03:44:02;94845.56;;;4.32;76.31
5500;BME280;2772;42.700;23.304;2023-04-07T03:46:29;94846.53;;;4.46;74.90
5500;BME280;2772;42.700;23.304;2023-04-07T03:48:58;94850.44;;;4.48;73.70
5500;BME280;2772;42.700;23.304;2023-04-07T03:51:25;94852.22;;;4.58;73.26
5500;BME280;2772;42.700;23.304;2023-04-07T03:53:52;94856.22;;;4.55;73.31
5500;BME280;2772;42.700;23.304;2023-04-07T03:56:19;94856.06;;;4.75;72.66
5500;BME280;2772;42.700;23.304;2023-04-07T03:58:47;94849.13;;;4.84;71.55
5500;BME280;2772;42.700;23.304;2023-04-07T04:01:13;94858.81;;;4.94;72.00
5500;BME280;2772;42.700;23.304;2023-04-07T04:03:40;94853.78;;;4.98;73.23
5500;BME280;2772;42.700;23.304;2023-04-07T04:06:08;94858.06;;;4.88;78.68
5500;BME280;2772;42.700;23.304;2023-04-07T04:08:35;94862.97;;;5.00;79.01
5500;BME280;2772;42.700;23.304;2023-04-07T04:11:01;94867.94;;;5.07;81.01
5500;BME280;2772;42.700;23.304;2023-04-07T04:13:28;94859.41;;;5.15;83.77
5500;BME280;2772;42.700;23.304;2023-04-07T04:15:55;94865.78;;;5.14;86.09
5500;BME280;2772;42.700;23.304;2023-04-07T04:18:21;94874.72;;;5.13;88.58
5500;BME280;2772;42.700;23.304;2023-04-07T04:20:48;94861.22;;;5.19;90.66
5500;BME280;2772;42.700;23.304;2023-04-07T04:23:16;94863.16;;;5.09;91.30
5500;BME280;2772;42.700;23.304;2023-04-07T04:25:43;94876.16;;;5.00;92.65
5500;BME280;2772;42.700;23.304;2023-04-07T04:28:10;94863.84;;;4.90;94.11
5500;BME280;2772;42.700;23.304;2023-04-07T04:30:36;94872.72;;;5.00;95.14
5500;BME280;2772;42.700;23.304;2023-04-07T04:33:03;94881.25;;;4.92;95.61
5500;BME280;2772;42.700;23.304;2023-04-07T04:35:30;94886.53;;;4.92;96.72
5500;BME280;2772;42.700;23.304;2023-04-07T04:37:56;94884.72;;;4.87;97.40
5500;BME280;2772;42.700;23.304;2023-04-07T04:40:24;94880.22;;;4.87;97.76
5500;BME280;2772;42.700;23.304;2023-04-07T04:42:51;94879.94;;;4.89;97.37
5500;BME280;2772;42.700;23.304;2023-04-07T04:45:18;94884.91;;;4.96;97.04
5500;BME280;2772;42.700;23.304;2023-04-07T04:47:44;94891.56;;;4.88;97.16
5500;BME280;2772;42.700;23.304;2023-04-07T04:50:11;94881.34;;;4.81;98.26
5500;BME280;2772;42.700;23.304;2023-04-07T04:52:38;94894.22;;;4.88;98.55
5500;BME280;2772;42.700;23.304;2023-04-07T04:55:06;94891.91;;;4.76;98.78
5500;BME280;2772;42.700;23.304;2023-04-07T04:57:34;94894.13;;;4.64;99.54
5500;BME280;2772;42.700;23.304;2023-04-07T05:00:01;94900.38;;;4.73;100.00
5500;BME280;2772;42.700;23.304;2023-04-07T05:02:28;94897.97;;;4.77;100.00
5500;BME280;2772;42.700;23.304;2023-04-07T05:04:55;94890.06;;;4.77;100.00
5500;BME280;2772;42.700;23.304;2023-04-07T05:07:22;94903.28;;;4.72;100.00
5500;BME280;2772;42.700;23.304;2023-04-07T05:09:48;94898.72;;;4.82;100.00
5500;BME280;2772;42.700;23.304;2023-04-07T05:12:15;94906.31;;;4.89;100.00
5500;BME280;2772;42.700;23.304;2023-04-07T05:14:43;94905.22;;;4.95;100.00
5500;BME280;2772;42.700;23.304;2023-04-07T05:17:10;94912.41;;;4.89;100.00
5500;BME280;2772;42.700;23.304;2023-04-07T05:19:37;94915.28;;;4.93;100.00
5500;BME280;2772;42.700;23.304;2023-04-07T05:22:03;94924.78;;;4.89;100.00
5500;BME280;2772;42.700;23.304;2023-04-07T05:24:30;94919.97;;;5.01;100.00
5500;BME280;2772;42.700;23.304;2023-04-07T05:26:57;94911.41;;;5.14;97.06
5500;BME280;2772;42.700;23.304;2023-04-07T05:29:23;94926.78;;;5.07;96.38
5500;BME280;2772;42.700;23.304;2023-04-07T05:31:51;94918.56;;;5.14;95.92
5500;BME280;2772;42.700;23.304;2023-04-07T05:34:18;94919.22;;;5.29;95.16
5500;BME280;2772;42.700;23.304;2023-04-07T05:36:45;94924.69;;;5.33;93.99
5500;BME280;2772;42.700;23.304;2023-04-07T05:39:11;94920.78;;;5.30;93.35
5500;BME280;2772;42.700;23.304;2023-04-07T05:41:38;94920.13;;;5.43;92.96
5500;BME280;2772;42.700;23.304;2023-04-07T05:44:05;94921.06;;;5.57;90.32
5500;BME280;2772;42.700;23.304;2023-04-07T05:46:32;94924.59;;;5.48;89.06
5500;BME280;2772;42.700;23.304;2023-04-07T05:49:00;94916.31;;;5.54;89.08
5500;BME280;2772;42.700;23.304;2023-04-07T05:51:26;94922.66;;;5.53;90.00
5500;BME280;2772;42.700;23.304;2023-04-07T05:53:53;94924.63;;;5.71;89.44
5500;BME280;2772;42.700;23.304;2023-04-07T05:56:20;94918.97;;;5.78;88.91
5500;BME280;2772;42.700;23.304;2023-04-07T05:58:47;94916.91;;;5.75;87.93
5500;BME280;2772;42.700;23.304;2023-04-07T06:01:13;94920.00;;;5.87;87.67
5500;BME280;2772;42.700;23.304;2023-04-07T06:03:40;94922.28;;;5.93;86.35
5500;BME280;2772;42.700;23.304;2023-04-07T06:06:09;94924.88;;;5.98;85.75
5500;BME280;2772;42.700;23.304;2023-04-07T06:08:35;94916.25;;;6.11;87.27
5500;BME280;2772;42.700;23.304;2023-04-07T06:11:02;94912.84;;;6.29;100.00
5500;BME280;2772;42.700;23.304;2023-04-07T06:13:29;94914.19;;;6.51;100.00
5500;BME280;2772;42.700;23.304;2023-04-07T06:15:56;94919.97;;;6.53;87.29
5500;BME280;2772;42.700;23.304;2023-04-07T06:18:22;94921.94;;;6.42;82.25
5500;BME280;2772;42.700;23.304;2023-04-07T06:20:49;94908.66;;;6.47;80.59
5500;BME280;2772;42.700;23.304;2023-04-07T06:23:17;94911.03;;;6.48;81.16
5500;BME280;2772;42.700;23.304;2023-04-07T06:25:44;94914.31;;;6.59;79.68
5500;BME280;2772;42.700;23.304;2023-04-07T06:28:10;94909.97;;;6.68;80.14
5500;BME280;2772;42.700;23.304;2023-04-07T06:30:37;94916.19;;;6.77;79.60
5500;BME280;2772;42.700;23.304;2023-04-07T06:33:05;94920.84;;;6.85;78.90
5500;BME280;2772;42.700;23.304;2023-04-07T06:35:32;94919.41;;;6.74;78.77
5500;BME280;2772;42.700;23.304;2023-04-07T06:37:58;94924.75;;;6.88;77.76
5500;BME280;2772;42.700;23.304;2023-04-07T06:40:26;94918.94;;;7.04;76.85
5500;BME280;2772;42.700;23.304;2023-04-07T06:42:53;94914.13;;;7.25;76.00
5500;BME280;2772;42.700;23.304;2023-04-07T06:45:20;94916.69;;;7.30;75.04
5500;BME280;2772;42.700;23.304;2023-04-07T06:47:47;94927.00;;;7.45;73.94
5500;BME280;2772;42.700;23.304;2023-04-07T06:50:14;94925.47;;;7.57;74.27
5500;BME280;2772;42.700;23.304;2023-04-07T06:52:45;94909.84;;;7.42;73.62
5500;BME280;2772;42.700;23.304;2023-04-07T06:55:11;94918.63;;;7.70;72.79
5500;BME280;2772;42.700;23.304;2023-04-07T06:57:39;94916.41;;;7.77;69.28
5500;BME280;2772;42.700;23.304;2023-04-07T07:00:07;94918.53;;;7.61;71.43
5500;BME280;2772;42.700;23.304;2023-04-07T07:02:34;94928.09;;;7.89;70.06
5500;BME280;2772;42.700;23.304;2023-04-07T07:05:01;94925.53;;;7.98;69.01
5500;BME280;2772;42.700;23.304;2023-04-07T07:07:28;94918.56;;;8.16;66.43
5500;BME280;2772;42.700;23.304;2023-04-07T07:09:55;94917.97;;;8.19;65.63
5500;BME280;2772;42.700;23.304;2023-04-07T07:12:22;94927.53;;;8.33;57.62
5500;BME280;2772;42.700;23.304;2023-04-07T07:14:50;94932.44;;;8.40;54.60
5500;BME280;2772;42.700;23.304;2023-04-07T07:17:17;94916.16;;;9.26;88.48
5500;BME280;2772;42.700;23.304;2023-04-07T07:19:43;94917.78;;;9.13;61.19
5500;BME280;2772;42.700;23.304;2023-04-07T07:22:10;94926.66;;;9.09;55.27
5500;BME280;2772;42.700;23.304;2023-04-07T07:24:37;94930.34;;;8.99;54.21
5500;BME280;2772;42.700;23.304;2023-04-07T07:27:03;94934.44;;;8.70;51.34
5500;BME280;2772;42.700;23.304;2023-04-07T07:29:30;94932.56;;;8.84;51.38
5500;BME280;2772;42.700;23.304;2023-04-07T07:31:58;94932.38;;;8.80;50.92
5500;BME280;2772;42.700;23.304;2023-04-07T07:34:25;94944.16;;;8.25;50.80
5500;BME280;2772;42.700;23.304;2023-04-07T07:36:52;94944.72;;;8.22;51.17
5500;BME280;2772;42.700;23.304;2023-04-07T07:39:19;94940.88;;;8.42;53.31
5500;BME280;2772;42.700;23.304;2023-04-07T07:41:45;94943.84;;;8.40;52.31
5500;BME280;2772;42.700;23.304;2023-04-07T07:44:12;94945.31;;;8.60;52.17
5500;BME280;2772;42.700;23.304;2023-04-07T07:46:39;94946.97;;;8.69;53.59
5500;BME280;2772;42.700;23.304;2023-04-07T07:49:07;94925.59;;;8.74;55.98
5500;BME280;2772;42.700;23.304;2023-04-07T07:51:33;94953.38;;;8.90;51.17
5500;BME280;2772;42.700;23.304;2023-04-07T07:54:00;94942.66;;;8.95;51.18
5500;BME280;2772;42.700;23.304;2023-04-07T07:56:27;94946.44;;;8.81;49.07
5500;BME280;2772;42.700;23.304;2023-04-07T07:58:54;94941.75;;;9.00;51.52
5500;BME280;2772;42.700;23.304;2023-04-07T08:01:20;94934.72;;;9.17;53.55
5500;BME280;2772;42.700;23.304;2023-04-07T08:03:47;94938.09;;;9.31;53.63
5500;BME280;2772;42.700;23.304;2023-04-07T08:06:15;94947.59;;;9.46;52.13
5500;BME280;2772;42.700;23.304;2023-04-07T08:08:43;94933.59;;;9.32;51.81
5500;BME280;2772;42.700;23.304;2023-04-07T08:11:10;94943.13;;;9.33;49.13
5500;BME280;2772;42.700;23.304;2023-04-07T08:13:36;94950.16;;;9.15;48.14
5500;BME280;2772;42.700;23.304;2023-04-07T08:16:03;94947.22;;;9.39;50.89
5500;BME280;2772;42.700;23.304;2023-04-07T08:18:31;94943.25;;;9.50;48.92
5500;BME280;2772;42.700;23.304;2023-04-07T08:20:58;94945.72;;;9.46;47.60
5500;BME280;2772;42.700;23.304;2023-04-07T08:23:26;94943.78;;;9.16;47.36
5500;BME280;2772;42.700;23.304;2023-04-07T08:25:52;94944.63;;;9.25;49.01
5500;BME280;2772;42.700;23.304;2023-04-07T08:28:19;94944.97;;;9.32;50.20
5500;BME280;2772;42.700;23.304;2023-04-07T08:30:47;94945.16;;;9.36;48.45
5500;BME280;2772;42.700;23.304;2023-04-07T08:33:14;94941.31;;;9.42;49.05
5500;BME280;2772;42.700;23.304;2023-04-07T08:35:40;94943.25;;;9.50;48.61
5500;BME280;2772;42.700;23.304;2023-04-07T08:38:07;94941.31;;;9.42;50.50
5500;BME280;2772;42.700;23.304;2023-04-07T08:40:35;94937.91;;;9.50;49.72
5500;BME280;2772;42.700;23.304;2023-04-07T08:43:07;94937.19;;;9.36;47.43
5500;BME280;2772;42.700;23.304;2023-04-07T08:45:38;94943.47;;;9.62;50.53
5500;BME280;2772;42.700;23.304;2023-04-07T08:48:10;94940.47;;;9.86;48.58
5500;BME280;2772;42.700;23.304;2023-04-07T08:50:43;94947.91;;;9.97;47.04
5500;BME280;2772;42.700;23.304;2023-04-07T08:53:11;94939.41;;;9.87;48.47
5500;BME280;2772;42.700;23.304;2023-04-07T08:55:41;94938.69;;;10.03;50.13
5500;BME280;2772;42.700;23.304;2023-04-07T08:58:08;94947.56;;;10.21;48.56
5500;BME280;2772;42.700;23.304;2023-04-07T09:00:37;94948.84;;;9.71;46.67
5500;BME280;2772;42.700;23.304;2023-04-07T09:03:07;94955.53;;;9.68;47.32
5500;BME280;2772;42.700;23.304;2023-04-07T09:05:34;94946.94;;;9.71;49.05
5500;BME280;2772;42.700;23.304;2023-04-07T09:08:01;94939.34;;;9.78;50.66
5500;BME280;2772;42.700;23.304;2023-04-07T09:10:28;94940.16;;;9.87;47.24
5500;BME280;2772;42.700;23.304;2023-04-07T09:12:58;94951.09;;;9.86;47.26
5500;BME280;2772;42.700;23.304;2023-04-07T09:15:29;94941.28;;;9.95;46.51
5500;BME280;2772;42.700;23.304;2023-04-07T09:17:56;94946.63;;;9.95;45.82
5500;BME280;2772;42.700;23.304;2023-04-07T09:20:22;94946.75;;;9.90;45.62
5500;BME280;2772;42.700;23.304;2023-04-07T09:22:49;94938.03;;;10.28;47.48
5500;BME280;2772;42.700;23.304;2023-04-07T09:25:17;94926.19;;;10.51;46.65
5500;BME280;2772;42.700;23.304;2023-04-07T09:27:54;94933.13;;;10.61;45.13
5500;BME280;2772;42.700;23.304;2023-04-07T09:30:23;94941.28;;;10.64;44.30
5500;BME280;2772;42.700;23.304;2023-04-07T09:32:49;94935.81;;;10.78;44.43
5500;BME280;2772;42.700;23.304;2023-04-07T09:35:16;94945.13;;;10.41;44.76
5500;BME280;2772;42.700;23.304;2023-04-07T09:37:43;94952.16;;;10.07;45.17
5500;BME280;2772;42.700;23.304;2023-04-07T09:40:10;94956.69;;;10.06;45.41
5500;BME280;2772;42.700;23.304;2023-04-07T09:42:44;94941.88;;;9.83;46.11
5500;BME280;2772;42.700;23.304;2023-04-07T09:45:10;94953.22;;;9.97;46.99
5500;BME280;2772;42.700;23.304;2023-04-07T09:47:39;94959.34;;;10.06;46.80
5500;BME280;2772;42.700;23.304;2023-04-07T09:50:06;94952.13;;;9.98;45.96
5500;BME280;2772;42.700;23.304;2023-04-07T09:52:49;94963.84;;;9.97;46.85
5500;BME280;2772;42.700;23.304;2023-04-07T09:55:19;94955.97;;;10.14;49.03
5500;BME280;2772;42.700;23.304;2023-04-07T09:57:47;94959.06;;;10.47;47.63
5500;BME280;2772;42.700;23.304;2023-04-07T10:00:15;94961.78;;;10.55;45.96
5500;BME280;2772;42.700;23.304;2023-04-07T10:02:43;94958.94;;;10.52;47.06
5500;BME280;2772;42.700;23.304;2023-04-07T10:05:11;94957.56;;;10.71;46.34
5500;BME280;2772;42.700;23.304;2023-04-07T10:07:38;94952.25;;;10.71;46.86
5500;BME280;2772;42.700;23.304;2023-04-07T10:10:06;94951.97;;;10.81;47.04
5500;BME280;2772;42.700;23.304;2023-04-07T10:12:34;94951.97;;;10.98;46.58
5500;BME280;2772;42.700;23.304;2023-04-07T10:15:03;94961.06;;;10.89;46.18
5500;BME280;2772;42.700;23.304;2023-04-07T10:17:30;94951.22;;;11.06;46.03
5500;BME280;2772;42.700;23.304;2023-04-07T10:20:00;94954.50;;;11.12;45.94
5500;BME280;2772;42.700;23.304;2023-04-07T10:22:28;94952.94;;;11.11;47.31
5500;BME280;2772;42.700;23.304;2023-04-07T10:24:59;94960.91;;;11.19;45.37
5500;BME280;2772;42.700;23.304;2023-04-07T10:27:30;94950.88;;;10.91;44.43
5500;BME280;2772;42.700;23.304;2023-04-07T10:29:59;94953.22;;;10.75;44.63
5500;BME280;2772;42.700;23.304;2023-04-07T10:32:28;94951.19;;;10.98;45.13
5500;BME280;2772;42.700;23.304;2023-04-07T10:34:56;94949.47;;;10.93;46.61
5500;BME280;2772;42.700;23.304;2023-04-07T10:37:25;94961.38;;;10.96;47.14
5500;BME280;2772;42.700;23.304;2023-04-07T10:42:52;94956.31;;;10.69;47.03
5500;BME280;2772;42.700;23.304;2023-04-07T10:45:53;94973.22;;;10.64;47.05
5500;BME280;2772;42.700;23.304;2023-04-07T10:48:21;94964.31;;;10.77;47.65
5500;BME280;2772;42.700;23.304;2023-04-07T10:51:15;94972.50;;;10.89;48.89
5500;BME280;2772;42.700;23.304;2023-04-07T10:57:12;94963.59;;;11.19;47.82
5500;BME280;2772;42.700;23.304;2023-04-07T10:59:42;94968.78;;;11.16;48.60
5500;BME280;2772;42.700;23.304;2023-04-07T11:02:32;94977.41;;;11.39;47.89
5500;BME280;2772;42.700;23.304;2023-04-07T11:05:00;94972.06;;;11.21;47.58
5500;BME280;2772;42.700;23.304;2023-04-07T11:07:47;94972.69;;;11.01;48.30
5500;BME280;2772;42.700;23.304;2023-04-07T11:10:16;94978.47;;;10.86;49.61
5500;BME280;2772;42.700;23.304;2023-04-07T11:12:57;94987.53;;;10.77;48.34
5500;BME280;2772;42.700;23.304;2023-04-07T11:15:24;94973.47;;;11.02;49.29
5500;BME280;2772;42.700;23.304;2023-04-07T11:18:12;94968.13;;;11.02;48.26
5500;BME280;2772;42.700;23.304;2023-04-07T11:20:44;94982.69;;;10.87;48.48
5500;BME280;2772;42.700;23.304;2023-04-07T11:23:11;94971.53;;;10.85;49.16
5500;BME280;2772;42.700;23.304;2023-04-07T11:25:38;94979.56;;;11.02;49.58
5500;BME280;2772;42.700;23.304;2023-04-07T11:28:09;94984.91;;;11.02;49.17
5500;BME280;2772;42.700;23.304;2023-04-07T11:30:37;94981.31;;;11.15;49.58
5500;BME280;2772;42.700;23.304;2023-04-07T11:33:04;94983.34;;;11.18;48.95
5500;BME280;2772;42.700;23.304;2023-04-07T11:35:31;94975.38;;;11.27;48.87
5500;BME280;2772;42.700;23.304;2023-04-07T11:37:58;94980.69;;;11.36;49.38
5500;BME280;2772;42.700;23.304;2023-04-07T11:40:33;94980.38;;;11.37;48.10
5500;BME280;2772;42.700;23.304;2023-04-07T11:43:01;94983.81;;;11.29;48.29
5500;BME280;2772;42.700;23.304;2023-04-07T11:45:29;94986.50;;;11.29;48.33
5500;BME280;2772;42.700;23.304;2023-04-07T11:47:56;94990.25;;;11.19;49.19
5500;BME280;2772;42.700;23.304;2023-04-07T11:50:39;94983.06;;;11.29;49.86
5500;BME280;2772;42.700;23.304;2023-04-07T11:53:07;94989.91;;;11.04;49.77
5500;BME280;2772;42.700;23.304;2023-04-07T11:55:34;94978.28;;;10.91;50.80
5500;BME280;2772;42.700;23.304;2023-04-07T11:58:07;94979.72;;;11.06;50.79
5500;BME280;2772;42.700;23.304;2023-04-07T12:16:26;94965.97;;;11.64;49.56
5500;BME280;2772;42.700;23.304;2023-04-07T12:18:53;94977.25;;;11.78;49.53
5500;BME280;2772;42.700;23.304;2023-04-07T12:21:20;94975.84;;;11.72;48.56
5500;BME280;2772;42.700;23.304;2023-04-07T12:23:46;94973.19;;;11.72;48.76
5500;BME280;2772;42.700;23.304;2023-04-07T12:26:13;94978.97;;;11.40;49.24
5500;BME280;2772;42.700;23.304;2023-04-07T12:28:40;94975.38;;;11.27;50.14
5500;BME280;2772;42.700;23.304;2023-04-07T12:31:07;94970.34;;;11.34;50.55
5500;BME280;2772;42.700;23.304;2023-04-07T12:33:35;94975.34;;;11.36;50.39
5500;BME280;2772;42.700;23.304;2023-04-07T12:36:03;94980.84;;;11.22;49.27
5500;BME280;2772;42.700;23.304;2023-04-07T12:38:29;94976.91;;;10.94;49.83
5500;BME280;2772;42.700;23.304;2023-04-07T12:40:56;94980.53;;;11.06;50.38
5500;BME280;2772;42.700;23.304;2023-04-07T12:43:27;94972.22;;;11.16;49.58
5500;BME280;2772;42.700;23.304;2023-04-07T12:45:54;94974.25;;;11.19;50.50
5500;BME280;2772;42.700;23.304;2023-04-07T12:48:21;94970.97;;;11.22;50.01
5500;BME280;2772;42.700;23.304;2023-04-07T12:50:49;94967.06;;;11.46;49.76
5500;BME280;2772;42.700;23.304;2023-04-07T12:53:16;94976.75;;;11.42;49.77
5500;BME280;2772;42.700;23.304;2023-04-07T12:55:43;94970.63;;;11.24;50.22
5500;BME280;2772;42.700;23.304;2023-04-07T12:58:10;94982.09;;;10.99;50.08
5500;BME280;2772;42.700;23.304;2023-04-07T13:00:37;94988.25;;;10.60;51.09
5500;BME280;2772;42.700;23.304;2023-04-07T13:03:06;94977.59;;;10.60;53.20
5500;BME280;2772;42.700;23.304;2023-04-07T13:05:32;94985.88;;;10.59;51.97
5500;BME280;2772;42.700;23.304;2023-04-07T13:08:01;94982.88;;;10.43;52.74
5500;BME280;2772;42.700;23.304;2023-04-07T13:10:28;94991.75;;;10.69;53.26
5500;BME280;2772;42.700;23.304;2023-04-07T13:12:54;94979.06;;;10.75;52.51
5500;BME280;2772;42.700;23.304;2023-04-07T13:15:21;94984.13;;;11.02;52.35
5500;BME280;2772;42.700;23.304;2023-04-07T13:17:48;94983.19;;;11.15;51.67
5500;BME280;2772;42.700;23.304;2023-04-07T13:20:15;94976.28;;;11.22;51.80
5500;BME280;2772;42.700;23.304;2023-04-07T13:22:42;94984.59;;;10.95;51.05
5500;BME280;2772;42.700;23.304;2023-04-07T13:25:10;94982.41;;;10.97;52.33
5500;BME280;2772;42.700;23.304;2023-04-07T13:27:37;94995.38;;;10.90;52.29
5500;BME280;2772;42.700;23.304;2023-04-07T13:30:04;94989.56;;;10.88;52.62
5500;BME280;2772;42.700;23.304;2023-04-07T13:32:31;94992.50;;;10.70;53.02
5500;BME280;2772;42.700;23.304;2023-04-07T13:34:58;95014.25;;;10.63;53.35
5500;BME280;2772;42.700;23.304;2023-04-07T13:37:25;94994.09;;;10.71;54.27
5500;BME280;2772;42.700;23.304;2023-04-07T13:39:51;95007.28;;;10.84;55.18
5500;BME280;2772;42.700;23.304;2023-04-07T13:42:19;95013.50;;;10.71;53.90
5500;BME280;2772;42.700;23.304;2023-04-07T13:44:46;95001.34;;;10.87;56.43